| time (UTC) | temp C | wind direction | speed KPH | gust KPH | rain 1hr cm | rain 24hr cm | rain mn cm | humidity % | barometer mb |
| 20260505171547 | 9 | 225 | 8.0 | 14.5 | 0.00 | 0.00 | 0.00 | 52 | 1005.7 |
| 20260505171047 | 9 | 276 | 9.7 | 19.3 | 0.00 | 0.00 | 0.00 | 50 | 1005.8 |
| 20260505170547 | 9 | 273 | 6.4 | 17.7 | 0.00 | 0.00 | 0.00 | 53 | 1005.7 |
| 20260505170047 | 9 | 236 | 6.4 | 20.9 | 0.00 | 0.00 | 0.00 | 50 | 1005.6 |
| 20260505165546 | 9 | 252 | 3.2 | 12.9 | 0.00 | 0.00 | 0.00 | 51 | 1005.6 |
| 20260505165046 | 10 | 319 | 8.0 | 14.5 | 0.00 | 0.00 | 0.00 | 51 | 1005.6 |
| 20260505164546 | 10 | 302 | 9.7 | 25.7 | 0.00 | 0.00 | 0.00 | 51 | 1005.6 |
| 20260505164046 | 10 | 304 | 8.0 | 25.7 | 0.00 | 0.00 | 0.00 | 53 | 1005.6 |
| 20260505163545 | 9 | 279 | 9.7 | 14.5 | 0.00 | 0.00 | 0.00 | 54 | 1005.6 |
| 20260505163045 | 8 | 284 | 9.7 | 17.7 | 0.00 | 0.00 | 0.00 | 52 | 1005.7 |
| 20260505162545 | 9 | 272 | 8.0 | 17.7 | 0.00 | 0.00 | 0.00 | 53 | 1005.8 |
| 20260505162045 | 8 | 281 | 9.7 | 19.3 | 0.00 | 0.00 | 0.00 | 54 | 1005.7 |
| 20260505161544 | 8 | 284 | 9.7 | 19.3 | 0.00 | 0.00 | 0.00 | 54 | 1005.5 |
| 20260505161044 | 9 | 301 | 6.4 | 17.7 | 0.00 | 0.00 | 0.00 | 54 | 1005.6 |
| 20260505160543 | 8 | 286 | 8.0 | 14.5 | 0.00 | 0.00 | 0.00 | 56 | 1005.6 |
| 20260505153142 | 8 | 279 | 1.6 | 9.7 | 0.00 | 0.00 | 0.00 | 57 | 1005.2 |
| 20260505153131 | 8 | 278 | 0.0 | 9.7 | 0.00 | 0.00 | 0.00 | 58 | 1005.1 |
| 20260505153126 | 8 | 277 | 1.6 | 3.2 | 0.00 | 0.00 | 0.00 | 55 | 1005.3 |
| 20260505153042 | 8 | 279 | 1.6 | 9.7 | 0.00 | 0.00 | 0.00 | 57 | 1005.2 |
| 20260505152541 | 8 | 278 | 0.0 | 9.7 | 0.00 | 0.00 | 0.00 | 58 | 1005.1 |
| 20260505152041 | 8 | 277 | 1.6 | 3.2 | 0.00 | 0.00 | 0.00 | 55 | 1005.3 |
| 20260505151540 | 8 | 277 | 1.6 | 4.8 | 0.00 | 0.00 | 0.00 | 55 | 1005.3 |
| 20260505151328 | 8 | 276 | 0.0 | 4.8 | 0.00 | 0.00 | 0.00 | 58 | 1005.2 |
| 20260505151041 | 8 | 276 | 0.0 | 4.8 | 0.00 | 0.00 | 0.00 | 58 | 1005.2 |
| 20260505150540 | 8 | 277 | 1.6 | 3.2 | 0.00 | 0.00 | 0.00 | 59 | 1005.0 |
| 20260505150316 | 8 | 276 | 1.6 | 4.8 | 0.00 | 0.00 | 0.00 | 59 | 1005.1 |
| 20260505140536 | 7 | 277 | 0.0 | 4.8 | 0.00 | 0.00 | 0.00 | 61 | 1006.0 |
| 20260505125032 | 4 | 277 | 0.0 | 4.8 | 0.00 | 0.00 | 0.00 | 65 | 1005.8 |
| 20260505124032 | 4 | 277 | 0.0 | 0.0 | 0.00 | 0.00 | 0.00 | 64 | 1005.8 |
| 20260505123532 | 5 | 278 | 0.0 | 0.0 | 0.00 | 0.00 | 0.00 | 66 | 1005.6 |
| 20260505122133 | 5 | 278 | 0.0 | 0.0 | 0.00 | 0.00 | 0.00 | 64 | 1005.9 |
| 20260505122031 | 5 | 278 | 0.0 | 0.0 | 0.00 | 0.00 | 0.00 | 64 | 1005.9 |
| 20260505121530 | 5 | 277 | 0.0 | 0.0 | 0.00 | 0.00 | 0.00 | 64 | 1005.9 |
| 20260505121030 | 5 | 278 | 0.0 | 0.0 | 0.00 | 0.00 | 0.00 | 64 | 1005.8 |
| 20260505120530 | 5 | 278 | 0.0 | 0.0 | 0.00 | 0.00 | 0.00 | 64 | 1005.8 |
| 20260505120109 | 5 | 278 | 1.6 | 0.0 | 0.00 | 0.00 | 0.00 | 64 | 1005.5 |
| 20260505120030 | 5 | 278 | 1.6 | 0.0 | 0.00 | 0.00 | 0.00 | 64 | 1005.5 |
| 20260505115529 | 5 | 278 | 1.6 | 3.2 | 0.00 | 0.00 | 0.00 | 63 | 1005.5 |
| 20260505115029 | 5 | 277 | 3.2 | 4.8 | 0.00 | 0.00 | 0.00 | 63 | 1005.6 |
| 20260505114528 | 5 | 277 | 3.2 | 9.7 | 0.00 | 0.00 | 0.00 | 62 | 1005.6 |
| 20260505113028 | 6 | 277 | 1.6 | 6.4 | 0.00 | 0.00 | 0.00 | 60 | 1005.8 |
| 20260505110526 | 6 | 279 | 8.0 | 12.9 | 0.00 | 0.00 | 0.00 | 58 | 1005.9 |
| 20260505102024 | 6 | 234 | 1.6 | 6.4 | 0.00 | 0.00 | 0.00 | 56 | 1005.9 |
| 20260505101523 | 7 | 234 | 3.2 | 8.0 | 0.00 | 0.00 | 0.00 | 56 | 1005.9 |
| 20260505101023 | 7 | 234 | 3.2 | 8.0 | 0.00 | 0.00 | 0.00 | 56 | 1005.7 |
| 20260505095022 | 7 | 233 | 1.6 | 6.4 | 0.00 | 0.00 | 0.00 | 55 | 1005.6 |
| 20260505094522 | 7 | 233 | 3.2 | 8.0 | 0.00 | 0.00 | 0.00 | 55 | 1005.8 |
| 20260505094022 | 7 | 232 | 3.2 | 11.3 | 0.00 | 0.00 | 0.00 | 55 | 1005.9 |
| 20260505093021 | 7 | 231 | 1.6 | 8.0 | 0.00 | 0.00 | 0.00 | 53 | 1005.9 |
| 20260505091520 | 7 | 231 | 1.6 | 3.2 | 0.00 | 0.00 | 0.00 | 51 | 1005.4 |
| 20260505091149 | 7 | 231 | 1.6 | 8.0 | 0.00 | 0.00 | 0.00 | 51 | 1005.5 |
| 20260505091020 | 7 | 231 | 1.6 | 8.0 | 0.00 | 0.00 | 0.00 | 51 | 1005.5 |
| 20260505090519 | 7 | 230 | 1.6 | 4.8 | 0.00 | 0.00 | 0.00 | 51 | 1005.6 |
| 20260505090020 | 7 | 230 | 3.2 | 6.4 | 0.00 | 0.00 | 0.00 | 51 | 1005.5 |
| 20260505085519 | 7 | 230 | 3.2 | 9.7 | 0.00 | 0.00 | 0.00 | 50 | 1005.7 |
| 20260505085108 | 7 | 230 | 3.2 | 6.4 | 0.00 | 0.00 | 0.00 | 50 | 1005.7 |
| 20260505085018 | 7 | 230 | 3.2 | 6.4 | 0.00 | 0.00 | 0.00 | 50 | 1005.7 |
| 20260505084518 | 8 | 229 | 1.6 | 9.7 | 0.00 | 0.00 | 0.00 | 50 | 1005.8 |
| 20260505084018 | 8 | 229 | 0.0 | 3.2 | 0.00 | 0.00 | 0.00 | 50 | 1005.7 |
| 20260505083518 | 8 | 229 | 0.0 | 6.4 | 0.00 | 0.00 | 0.00 | 50 | 1005.8 |
| 20260505083018 | 8 | 229 | 1.6 | 4.8 | 0.00 | 0.00 | 0.00 | 49 | 1005.9 |
| 20260505082017 | 8 | 229 | 1.6 | 9.7 | 0.00 | 0.00 | 0.00 | 49 | 1006.0 |
| 20260505081516 | 8 | 235 | 1.6 | 6.4 | 0.00 | 0.00 | 0.00 | 49 | 1006.1 |
| 20260505080516 | 8 | 236 | 1.6 | 4.8 | 0.00 | 0.00 | 0.00 | 47 | 1006.3 |
| 20260505080017 | 8 | 236 | 3.2 | 8.0 | 0.00 | 0.00 | 0.00 | 46 | 1006.4 |
| 20260505075515 | 8 | 236 | 3.2 | 8.0 | 0.00 | 0.00 | 0.00 | 46 | 1006.5 |
| 20260505074515 | 8 | 246 | 4.8 | 14.5 | 0.00 | 0.00 | 0.00 | 45 | 1006.6 |
| 20260505074425 | 10 | 247 | 6.4 | 17.7 | 0.00 | 0.00 | 0.00 | 39 | 1007.0 |
| 20260505074403 | 10 | 231 | 6.4 | 16.1 | 0.00 | 0.00 | 0.00 | 38 | 1007.0 |
| 20260505074015 | 8 | 252 | 3.2 | 12.9 | 0.00 | 0.00 | 0.00 | 45 | 1006.6 |
| 20260505073514 | 8 | 201 | 3.2 | 8.0 | 0.00 | 0.00 | 0.00 | 45 | 1006.7 |
| 20260505073014 | 8 | 200 | 3.2 | 9.7 | 0.00 | 0.00 | 0.00 | 45 | 1006.8 |
| 20260505072514 | 8 | 229 | 4.8 | 11.3 | 0.00 | 0.00 | 0.00 | 45 | 1007.0 |
| 20260505071513 | 9 | 250 | 4.8 | 11.3 | 0.00 | 0.00 | 0.00 | 44 | 1006.8 |
| 20260505070512 | 9 | 200 | 6.4 | 16.1 | 0.00 | 0.00 | 0.00 | 43 | 1006.7 |
| 20260505064011 | 9 | 250 | 6.4 | 12.9 | 0.00 | 0.00 | 0.00 | 41 | 1006.8 |
| 20260505063511 | 9 | 225 | 6.4 | 16.1 | 0.00 | 0.00 | 0.00 | 40 | 1007.0 |
| 20260505062510 | 10 | 259 | 6.4 | 19.3 | 0.00 | 0.00 | 0.00 | 40 | 1007.1 |
| 20260505061510 | 10 | 247 | 6.4 | 17.7 | 0.00 | 0.00 | 0.00 | 39 | 1007.0 |
| 20260505061009 | 10 | 242 | 6.4 | 16.1 | 0.00 | 0.00 | 0.00 | 38 | 1007.0 |
| 20260505060509 | 10 | 231 | 6.4 | 16.1 | 0.00 | 0.00 | 0.00 | 38 | 1007.0 |
| 20260505060009 | 10 | 265 | 6.4 | 14.5 | 0.00 | 0.00 | 0.00 | 37 | 1007.1 |
| 20260505055509 | 10 | 245 | 8.0 | 19.3 | 0.00 | 0.00 | 0.00 | 37 | 1006.8 |
| 20260505054508 | 10 | 236 | 9.7 | 22.5 | 0.00 | 0.00 | 0.00 | 35 | 1006.8 |
| 20260505053007 | 10 | 270 | 6.4 | 22.5 | 0.00 | 0.00 | 0.00 | 33 | 1006.9 |
| 20260505052554 | 10 | 248 | 4.8 | 12.9 | 0.00 | 0.00 | 0.00 | 33 | 1007.1 |
| 20260505052507 | 10 | 248 | 4.8 | 12.9 | 0.00 | 0.00 | 0.00 | 33 | 1007.1 |
| 20260505051506 | 10 | 232 | 6.4 | 16.1 | 0.00 | 0.00 | 0.00 | 32 | 1007.1 |
| 20260505041702 | 11 | 238 | 11.3 | 24.1 | 0.00 | 0.00 | 0.00 | 30 | 1007.0 |
| 20260505041503 | 11 | 238 | 11.3 | 24.1 | 0.00 | 0.00 | 0.00 | 30 | 1007.0 |
| 20260505041003 | 11 | 238 | 11.3 | 25.7 | 0.00 | 0.00 | 0.00 | 29 | 1006.8 |
| 20260505040502 | 11 | 236 | 9.7 | 17.7 | 0.00 | 0.00 | 0.00 | 28 | 1006.8 |
| 20260505040002 | 11 | 246 | 11.3 | 27.4 | 0.00 | 0.00 | 0.00 | 28 | 1006.7 |
| 20260505035502 | 11 | 254 | 9.7 | 20.9 | 0.00 | 0.00 | 0.00 | 27 | 1006.8 |
| 20260505034501 | 11 | 218 | 8.0 | 20.9 | 0.00 | 0.00 | 0.00 | 26 | 1006.8 |
| 20260505033000 | 11 | 231 | 8.0 | 25.7 | 0.00 | 0.00 | 0.00 | 23 | 1006.6 |
| 20260505032500 | 11 | 244 | 6.4 | 16.1 | 0.00 | 0.00 | 0.00 | 22 | 1006.6 |
| 20260505031459 | 12 | 222 | 8.0 | 19.3 | 0.00 | 0.00 | 0.00 | 20 | 1006.5 |
| 20260505030459 | 12 | 228 | 4.8 | 14.5 | 0.00 | 0.00 | 0.00 | 20 | 1006.5 |
| 20260505025458 | 12 | 248 | 3.2 | 12.9 | 0.00 | 0.00 | 0.00 | 20 | 1006.5 |
| 20260505024458 | 12 | 186 | 6.4 | 17.7 | 0.00 | 0.00 | 0.00 | 21 | 1006.0 |
| 20260505023457 | 12 | 237 | 1.6 | 9.7 | 0.00 | 0.00 | 0.00 | 22 | 1005.9 |
| 20260505022456 | 13 | 242 | 6.4 | 16.1 | 0.00 | 0.00 | 0.00 | 21 | 1005.6 |
| 20260505020610 | 13 | 240 | 6.4 | 14.5 | 0.00 | 0.00 | 0.00 | 18 | 1005.7 |
| 20260505020557 | 14 | 232 | 6.4 | 19.3 | 0.00 | 0.00 | 0.00 | 18 | 1005.5 |
| 20260505020455 | 13 | 263 | 4.8 | 14.5 | 0.00 | 0.00 | 0.00 | 18 | 1005.4 |
| 20260505015455 | 13 | 219 | 6.4 | 19.3 | 0.00 | 0.00 | 0.00 | 18 | 1005.6 |
| 20260505014955 | 13 | 240 | 6.4 | 14.5 | 0.00 | 0.00 | 0.00 | 18 | 1005.7 |
| 20260505014454 | 14 | 232 | 6.4 | 19.3 | 0.00 | 0.00 | 0.00 | 18 | 1005.5 |
| 20260505014114 | 17 | 229 | 11.3 | 16.1 | 0.00 | 0.00 | 0.00 | 27 | 1005.2 |
| 20260505013954 | 14 | 236 | 8.0 | 17.7 | 0.00 | 0.00 | 0.00 | 19 | 1005.4 |
| 20260505012453 | 15 | 223 | 6.4 | 19.3 | 0.00 | 0.00 | 0.00 | 20 | 1005.1 |
| 20260505011953 | 15 | 242 | 6.4 | 24.1 | 0.00 | 0.00 | 0.00 | 21 | 1005.0 |
| 20260505011452 | 15 | 250 | 6.4 | 12.9 | 0.00 | 0.00 | 0.00 | 22 | 1005.0 |
| 20260505010952 | 15 | 258 | 8.0 | 19.3 | 0.00 | 0.00 | 0.00 | 23 | 1004.9 |
| 20260505005952 | 15 | 193 | 6.4 | 11.3 | 0.00 | 0.00 | 0.00 | 24 | 1005.0 |
| 20260505005451 | 15 | 214 | 8.0 | 17.7 | 0.00 | 0.00 | 0.00 | 24 | 1005.0 |
| 20260505004951 | 15 | 247 | 9.7 | 22.5 | 0.00 | 0.00 | 0.00 | 23 | 1005.1 |
| 20260505004451 | 15 | 229 | 8.0 | 24.1 | 0.00 | 0.00 | 0.00 | 23 | 1005.1 |
| 20260505003951 | 15 | 236 | 6.4 | 24.1 | 0.00 | 0.00 | 0.00 | 24 | 1005.2 |
| 20260505003450 | 15 | 243 | 6.4 | 16.1 | 0.00 | 0.00 | 0.00 | 24 | 1005.2 |
| 20260505002950 | 15 | 231 | 6.4 | 16.1 | 0.00 | 0.00 | 0.00 | 25 | 1005.1 |
| 20260505002450 | 16 | 283 | 6.4 | 16.1 | 0.00 | 0.00 | 0.00 | 24 | 1005.1 |
| 20260505001950 | 16 | 284 | 9.7 | 27.4 | 0.00 | 0.00 | 0.00 | 24 | 1005.0 |
| 20260505001449 | 16 | 239 | 9.7 | 24.1 | 0.00 | 0.00 | 0.00 | 23 | 1005.2 |
| 20260505000949 | 16 | 268 | 6.4 | 16.1 | 0.00 | 0.00 | 0.00 | 23 | 1005.3 |
| 20260505000449 | 16 | 221 | 6.4 | 19.3 | 0.00 | 0.00 | 0.00 | 23 | 1005.1 |
| 20260504234947 | 16 | 250 | 9.7 | 27.4 | 0.00 | 0.00 | 0.00 | 22 | 1005.0 |
| 20260504234447 | 16 | 288 | 11.3 | 24.1 | 0.00 | 0.00 | 0.00 | 22 | 1005.0 |
| 20260504232946 | 17 | 210 | 11.3 | 30.6 | 0.00 | 0.00 | 0.00 | 20 | 1004.8 |
| 20260504232446 | 17 | 255 | 8.0 | 22.5 | 0.00 | 0.00 | 0.00 | 20 | 1005.0 |
| 20260504231946 | 17 | 218 | 11.3 | 20.9 | 0.00 | 0.00 | 0.00 | 19 | 1004.7 |
| 20260504231445 | 17 | 227 | 8.0 | 20.9 | 0.00 | 0.00 | 0.00 | 22 | 1004.6 |
| 20260504230945 | 17 | 269 | 11.3 | 17.7 | 0.00 | 0.00 | 0.00 | 26 | 1004.8 |
| 20260504230445 | 17 | 275 | 11.3 | 30.6 | 0.00 | 0.00 | 0.00 | 27 | 1004.8 |
| 20260504224444 | 17 | 238 | 8.0 | 19.3 | 0.00 | 0.00 | 0.00 | 27 | 1005.3 |
| 20260504223944 | 17 | 244 | 8.0 | 19.3 | 0.00 | 0.00 | 0.00 | 27 | 1005.3 |
| 20260504223443 | 17 | 225 | 11.3 | 20.9 | 0.00 | 0.00 | 0.00 | 27 | 1005.5 |
| 20260504222943 | 17 | 229 | 9.7 | 25.7 | 0.00 | 0.00 | 0.00 | 26 | 1005.1 |
| 20260504221943 | 17 | 229 | 11.3 | 16.1 | 0.00 | 0.00 | 0.00 | 27 | 1005.2 |
| 20260504221442 | 17 | 252 | 12.9 | 27.4 | 0.00 | 0.00 | 0.00 | 27 | 1005.3 |
| 20260504220931 | 6 | 144 | 0.0 | 3.2 | 0.00 | 0.00 | 0.00 | 55 | 1007.7 |
| 20260504215942 | 18 | 281 | 9.7 | 24.1 | 0.00 | 0.00 | 0.00 | 26 | 1005.8 |
| 20260504215441 | 17 | 294 | 9.7 | 29.0 | 0.00 | 0.00 | 0.00 | 26 | 1005.8 |
| 20260504214441 | 17 | 218 | 9.7 | 25.7 | 0.00 | 0.00 | 0.00 | 26 | 1005.9 |
| 20260504213941 | 17 | 219 | 9.7 | 25.7 | 0.00 | 0.00 | 0.00 | 26 | 1006.0 |
| 20260504212939 | 18 | 281 | 8.0 | 17.7 | 0.00 | 0.00 | 0.00 | 28 | 1005.9 |
| 20260504211939 | 17 | 299 | 8.0 | 24.1 | 0.00 | 0.00 | 0.00 | 29 | 1006.1 |
| 20260504210438 | 17 | 163 | 9.7 | 17.7 | 0.00 | 0.00 | 0.00 | 25 | 1006.1 |
| 20260504210015 | 17 | 216 | 12.9 | 20.9 | 0.00 | 0.00 | 0.00 | 26 | 1005.9 |
| 20260504205938 | 17 | 216 | 12.9 | 20.9 | 0.00 | 0.00 | 0.00 | 26 | 1005.9 |
| 20260504204937 | 17 | 283 | 6.4 | 25.7 | 0.00 | 0.00 | 0.00 | 26 | 1006.1 |
| 20260504204437 | 17 | 190 | 6.4 | 14.5 | 0.00 | 0.00 | 0.00 | 31 | 1005.7 |
| 20260504203436 | 17 | 217 | 4.8 | 4.8 | 0.00 | 0.00 | 0.00 | 29 | 1006.2 |
| 20260504201936 | 17 | 261 | 8.0 | 25.7 | 0.00 | 0.00 | 0.00 | 32 | 1006.1 |
| 20260504200935 | 17 | 150 | 12.9 | 27.4 | 0.00 | 0.00 | 0.00 | 29 | 1006.4 |
| 20260504200434 | 17 | 279 | 12.9 | 27.4 | 0.00 | 0.00 | 0.00 | 29 | 1006.3 |
| 20260504195935 | 17 | 289 | 11.3 | 27.4 | 0.00 | 0.00 | 0.00 | 29 | 1006.4 |
| 20260504194934 | 16 | 234 | 6.4 | 12.9 | 0.00 | 0.00 | 0.00 | 29 | 1006.1 |
| 20260504193933 | 17 | 225 | 9.7 | 24.1 | 0.00 | 0.00 | 0.00 | 30 | 1006.6 |
| 20260504193433 | 17 | 231 | 11.3 | 16.1 | 0.00 | 0.00 | 0.00 | 30 | 1006.6 |
| 20260504192932 | 17 | 283 | 8.0 | 19.3 | 0.00 | 0.00 | 0.00 | 30 | 1006.5 |
| 20260504192432 | 17 | 307 | 4.8 | 16.1 | 0.00 | 0.00 | 0.00 | 28 | 1006.3 |
| 20260504191932 | 17 | 253 | 6.4 | 14.5 | 0.00 | 0.00 | 0.00 | 28 | 1006.2 |
| 20260504191432 | 16 | 275 | 9.7 | 19.3 | 0.00 | 0.00 | 0.00 | 31 | 1006.7 |
| 20260504185931 | 16 | 315 | 6.4 | 20.9 | 0.00 | 0.00 | 0.00 | 32 | 1006.9 |
| 20260504184430 | 15 | 277 | 8.0 | 17.7 | 0.00 | 0.00 | 0.00 | 32 | 1007.0 |
| 20260504183430 | 15 | 230 | 8.0 | 24.1 | 0.00 | 0.00 | 0.00 | 32 | 1007.0 |
| 20260504182929 | 15 | 265 | 9.7 | 20.9 | 0.00 | 0.00 | 0.00 | 35 | 1007.2 |
| 20260504182429 | 15 | 243 | 9.7 | 16.1 | 0.00 | 0.00 | 0.00 | 32 | 1007.1 |
| 20260504181428 | 15 | 275 | 9.7 | 24.1 | 0.00 | 0.00 | 0.00 | 36 | 1007.0 |
| 20260504175928 | 15 | 273 | 9.7 | 19.3 | 0.00 | 0.00 | 0.00 | 37 | 1007.7 |
| 20260504175427 | 14 | 250 | 8.0 | 19.3 | 0.00 | 0.00 | 0.00 | 37 | 1007.5 |
| 20260504174427 | 14 | 228 | 9.7 | 19.3 | 0.00 | 0.00 | 0.00 | 38 | 1007.5 |
| 20260504173927 | 14 | 241 | 8.0 | 22.5 | 0.00 | 0.00 | 0.00 | 38 | 1007.4 |
| 20260504173426 | 14 | 286 | 8.0 | 17.7 | 0.00 | 0.00 | 0.00 | 39 | 1007.5 |
| 20260504172926 | 14 | 277 | 8.0 | 16.1 | 0.00 | 0.00 | 0.00 | 40 | 1007.4 |
| 20260504172425 | 13 | 281 | 9.7 | 20.9 | 0.00 | 0.00 | 0.00 | 40 | 1007.7 |